Ana Sayfa
METAR-TAF:

METAR-TAF

Havaalanları :

Fort Rucker, Alabama, Amerika Birleşik Devletleri

Enlem: 31-21N, Boylam: 085-40W, yükseklik: 97 m

Güncel hava durumu gözlemi

Rapor saat 17:55 UTC de 1 saat ve 5 dakika önce yapıldı.
Sakin rüzgar
Sıcaklık 36°C
Nem 37%
Basınç 1013 hPa
Görüş mesafesi: 16.1 km
24000 ft yükseklikte az bulutlu
28000 ft yükseklikte az bulutlu
30000 ft yükseklikte az bulutlu
35000 ft yükseklikte parçalı bulutlu

METAR: KHEY 251755Z AUTO 00000KT 10SM FEW240 FEW280 FEW300 SCT350 36/19 A2991 RMK AO2 SLP127 T03590193 10368 20254 58006

Saat: 14:00 (19:00 UTC)


TAF: eksik

4.000'den fazla havaalanı için hava durumu gözlemleri ve tahminleri (METAR ve TAF raporları).

Kullanılabilir istasyonlar harita üzerinde sarı ve kırmızı noktalarla gösterilir.

İstasyonun adını görmek için fareyi noktanın üzerinde gezdirin.

Sonrasında hava gözlem ve tahminlerini görmek için tıklayın.

Haritayı değiştirmek için: yaklaştırmak için siyah artı işaretli yeşil düğmeye ve uzaklaştırmak için de eksi işaretli düğmeye hızla tıklayın; bitişik haritalar için yeşil okları kullanın.


METAR-TAF: